ヌクアロファ の空港の天気 - METARとTAF

ファアモツ国際空港 ( NFTF / TBU ) - トンガ ヌクアロファ
飛行場実況気象(Metar)
観測時間11/16 04:00 TOT (11/15 15:00 UTC)
風向・風速南南東 5m/s
視程10km以上
天気現象
少しの雲 雲底高度 520m
全天の8割程度の雲 雲底高度 1220m
気温23℃
湿度73%
気圧1016hPa
METARNFTF 151500Z 15009KT 9999 FEW017 BKN040 23/18 Q1016
過去の天気等 Google飛行場航空写真 Wunderground天気予報

過去48時間のMETAR

飛行場予報(TAF)
発表時間: 11/16 00:07 TOT (11/15 11:07 UTC)
予報対象時間: 16日1時 TOT ~ 17日1時 TOT
風向・風速南東 4m/s
視程10km以上
少しの雲 雲底高度 490m
TAF NFTF 151107Z 1512/1612 13008KT 9999 FEW016